createdAt,value
2022-09-06T00:00:54.819Z,37.03
2022-09-06T00:03:21.853Z,36.79
2022-09-06T00:05:48.846Z,36.53
2022-09-06T00:08:15.594Z,36.62
2022-09-06T00:10:42.588Z,36.54
2022-09-06T00:13:13.307Z,36.45
2022-09-06T00:15:39.970Z,36.92
2022-09-06T00:18:09.327Z,36.73
2022-09-06T00:20:38.318Z,36.41
2022-09-06T00:23:05.920Z,36.17
2022-09-06T00:25:34.757Z,36.53
2022-09-06T00:28:03.341Z,35.81
2022-09-06T00:30:31.840Z,35.98
2022-09-06T00:32:58.565Z,35.68
2022-09-06T00:35:27.869Z,35.87
2022-09-06T00:37:57.428Z,37.22
2022-09-06T00:40:27.618Z,36.93
2022-09-06T00:42:54.511Z,37.61
2022-09-06T00:45:22.047Z,37.83
2022-09-06T00:47:50.100Z,37.93
2022-09-06T00:50:18.962Z,37.92
2022-09-06T00:52:51.689Z,37.85
2022-09-06T00:55:19.623Z,37.98
2022-09-06T00:57:46.911Z,38.33
2022-09-06T01:00:14.846Z,38.31
2022-09-06T01:02:42.332Z,38.19
2022-09-06T01:05:10.406Z,38.45
2022-09-06T01:07:51.436Z,38.00
2022-09-06T01:10:45.775Z,38.52
2022-09-06T01:13:24.907Z,39.52
2022-09-06T01:16:00.942Z,39.35
2022-09-06T01:18:41.947Z,40.05
2022-09-06T01:21:36.420Z,40.56
2022-09-06T01:24:43.565Z,41.05
2022-09-06T01:27:46.229Z,43.35
2022-09-06T01:30:16.436Z,44.30
2022-09-06T01:32:54.143Z,45.32
2022-09-06T01:35:29.547Z,46.27
2022-09-06T01:37:58.584Z,46.19
2022-09-06T01:40:25.659Z,47.80
2022-09-06T01:42:55.408Z,48.07
2022-09-06T01:45:30.404Z,49.03
2022-09-06T01:48:09.353Z,49.71
2022-09-06T01:50:52.844Z,50.16
2022-09-06T01:53:32.656Z,50.75
2022-09-06T01:56:07.748Z,51.88
2022-09-06T01:59:01.994Z,52.20
2022-09-06T02:01:36.257Z,52.23
2022-09-06T02:04:12.583Z,52.78
2022-09-06T02:06:43.716Z,52.90
2022-09-06T02:09:16.101Z,52.26
2022-09-06T02:11:49.102Z,53.10
2022-09-06T02:14:23.453Z,54.63
2022-09-06T02:16:55.805Z,55.00
2022-09-06T02:19:27.966Z,55.49
2022-09-06T02:21:57.921Z,55.01
2022-09-06T02:24:30.743Z,54.99
2022-09-06T02:26:58.169Z,55.99
2022-09-06T02:29:26.950Z,55.74
2022-09-06T02:32:00.453Z,55.53
2022-09-06T02:34:29.203Z,55.46
2022-09-06T02:36:56.913Z,55.47
2022-09-06T02:39:24.546Z,55.82
2022-09-06T02:41:52.174Z,55.07
2022-09-06T02:44:18.783Z,55.64
2022-09-06T02:46:46.918Z,55.03
2022-09-06T02:49:13.717Z,55.17
2022-09-06T02:51:40.875Z,54.60
2022-09-06T02:54:07.885Z,54.70
2022-09-06T02:56:37.852Z,55.50
2022-09-06T02:59:04.545Z,55.66
2022-09-06T03:01:31.442Z,56.10
2022-09-06T03:04:03.351Z,56.27
2022-09-06T03:06:30.308Z,55.83
2022-09-06T03:08:57.132Z,56.13
2022-09-06T03:11:24.117Z,55.42
2022-09-06T03:13:51.010Z,56.28
2022-09-06T03:16:18.107Z,56.72
2022-09-06T03:18:45.082Z,56.33
2022-09-06T03:21:13.422Z,56.70
2022-09-06T03:23:42.409Z,56.58
2022-09-06T03:26:09.247Z,56.65
2022-09-06T03:28:36.639Z,56.77
2022-09-06T03:31:04.051Z,57.12
2022-09-06T03:33:30.752Z,57.04
2022-09-06T03:35:59.151Z,56.02
2022-09-06T03:38:28.441Z,56.01
2022-09-06T03:40:55.568Z,56.58
2022-09-06T03:43:24.302Z,56.03
2022-09-06T03:45:53.789Z,56.14
2022-09-06T03:48:23.708Z,56.35
2022-09-06T03:50:52.902Z,57.30
2022-09-06T03:53:21.899Z,56.68
2022-09-06T03:55:51.992Z,56.76
2022-09-06T03:58:21.039Z,57.61
2022-09-06T04:00:48.787Z,57.45
2022-09-06T04:03:15.972Z,58.02
2022-09-06T04:05:46.624Z,57.98
2022-09-06T04:08:13.239Z,58.12
2022-09-06T04:10:39.891Z,57.52
2022-09-06T04:13:15.304Z,57.48
2022-09-06T04:15:45.662Z,57.55
2022-09-06T04:18:12.812Z,57.91
2022-09-06T04:20:40.903Z,57.91
2022-09-06T04:23:07.784Z,57.79
2022-09-06T04:25:37.489Z,58.22
2022-09-06T04:28:04.363Z,58.24
2022-09-06T04:30:34.958Z,58.41
2022-09-06T04:33:01.913Z,58.58
2022-09-06T04:35:28.907Z,58.20
2022-09-06T04:37:58.614Z,58.62
2022-09-06T04:40:25.227Z,58.02
2022-09-06T04:42:51.852Z,57.75
2022-09-06T04:45:18.984Z,58.26
2022-09-06T04:47:47.113Z,58.43
2022-09-06T04:50:14.121Z,58.69
2022-09-06T04:52:40.742Z,58.73
2022-09-06T04:55:08.320Z,58.88
2022-09-06T04:57:38.993Z,59.27
2022-09-06T05:00:10.987Z,59.46
2022-09-06T05:02:38.240Z,59.24
2022-09-06T05:05:09.120Z,58.97
2022-09-06T05:07:36.316Z,59.21
2022-09-06T05:10:13.513Z,59.61
2022-09-06T05:12:44.095Z,59.30
2022-09-06T05:15:11.352Z,59.59
2022-09-06T05:17:37.959Z,59.46
2022-09-06T05:20:08.732Z,59.52
2022-09-06T05:22:42.815Z,59.77
2022-09-06T05:25:10.132Z,59.47
2022-09-06T05:27:36.866Z,58.67
2022-09-06T05:30:04.040Z,57.67
2022-09-06T05:32:31.254Z,56.69
2022-09-06T05:34:58.017Z,55.19
2022-09-06T05:37:26.993Z,53.79
2022-09-06T05:39:53.791Z,52.40
2022-09-06T05:42:20.520Z,51.72
2022-09-06T05:44:47.230Z,50.09
2022-09-06T05:47:13.947Z,49.67
2022-09-06T05:49:41.038Z,48.33
2022-09-06T05:52:08.709Z,48.11
2022-09-06T05:54:37.029Z,47.18
2022-09-06T05:57:04.931Z,46.78
2022-09-06T05:59:31.920Z,45.30
2022-09-06T06:01:59.527Z,44.90
2022-09-06T06:04:26.607Z,44.47
2022-09-06T06:06:53.332Z,43.67
2022-09-06T06:09:19.979Z,42.90
2022-09-06T06:11:47.994Z,42.68
2022-09-06T06:14:14.668Z,42.28
2022-09-06T06:16:42.525Z,42.13
2022-09-06T06:19:09.278Z,41.81
2022-09-06T06:21:36.943Z,41.89
2022-09-06T06:24:05.453Z,41.69
2022-09-06T06:26:34.269Z,41.16
2022-09-06T06:29:02.674Z,41.16
2022-09-06T06:31:30.120Z,40.38
2022-09-06T06:33:57.382Z,40.07
2022-09-06T06:36:26.878Z,39.49
2022-09-06T06:38:55.359Z,39.59
2022-09-06T06:41:23.765Z,39.29
2022-09-06T06:43:55.753Z,39.10
2022-09-06T06:46:28.838Z,39.57
2022-09-06T06:48:55.827Z,38.89
2022-09-06T06:51:23.784Z,39.59
2022-09-06T06:53:52.292Z,39.63
2022-09-06T06:56:26.073Z,38.71
2022-09-06T06:58:55.256Z,38.55
2022-09-06T07:01:23.036Z,38.19
2022-09-06T07:03:52.300Z,37.35
2022-09-06T07:06:20.017Z,37.45
2022-09-06T07:08:47.105Z,37.42
2022-09-06T07:11:16.204Z,36.82
2022-09-06T07:13:43.610Z,36.66
2022-09-06T07:16:12.390Z,36.60
2022-09-06T07:18:40.748Z,35.98
2022-09-06T07:24:06.456Z,36.13
2022-09-06T07:26:34.646Z,36.03
2022-09-06T07:29:05.939Z,36.01
2022-09-06T07:34:22.239Z,34.69
2022-09-06T07:36:52.425Z,34.08
2022-09-06T07:39:19.134Z,34.95
2022-09-06T07:41:45.773Z,34.19
2022-09-06T07:44:12.382Z,34.50
2022-09-06T07:46:39.286Z,34.15
2022-09-06T07:49:06.213Z,33.99
2022-09-06T07:54:31.703Z,33.40
2022-09-06T07:56:58.479Z,33.16
2022-09-06T07:59:25.143Z,33.15
2022-09-06T08:01:54.190Z,32.95
2022-09-06T08:04:21.194Z,32.72
2022-09-06T08:09:37.967Z,32.29
2022-09-06T08:12:09.423Z,32.16
2022-09-06T08:14:36.143Z,32.23
2022-09-06T08:17:02.999Z,32.38
2022-09-06T08:19:29.974Z,31.58
2022-09-06T08:21:57.700Z,31.41
2022-09-06T08:24:24.375Z,31.83
2022-09-06T08:26:52.908Z,32.04
2022-09-06T08:29:19.804Z,32.77
2022-09-06T08:31:47.440Z,32.30
2022-09-06T08:37:05.334Z,31.51
2022-09-06T08:39:33.832Z,31.34
2022-09-06T08:42:11.804Z,31.05
2022-09-06T08:44:57.231Z,30.81
2022-09-06T08:47:26.253Z,30.57
2022-09-06T08:49:57.840Z,30.31
2022-09-06T08:53:13.077Z,30.38
2022-09-06T08:55:42.961Z,30.95
2022-09-06T08:58:22.956Z,30.94
2022-09-06T09:00:54.760Z,30.59
2022-09-06T09:03:26.872Z,30.56
2022-09-06T09:05:53.855Z,30.17
2022-09-06T09:08:25.697Z,29.88
2022-09-06T09:10:58.217Z,29.90
2022-09-06T09:13:31.728Z,29.29
2022-09-06T09:15:59.196Z,29.59
2022-09-06T09:18:29.878Z,29.82
2022-09-06T09:21:00.867Z,30.04
2022-09-06T09:23:30.317Z,30.45
2022-09-06T09:26:02.651Z,30.10
2022-09-06T09:28:36.209Z,30.56
2022-09-06T09:31:02.921Z,30.46
2022-09-06T09:33:34.712Z,30.95
2022-09-06T09:36:06.256Z,29.61
2022-09-06T09:38:40.131Z,29.34
2022-09-06T09:41:08.273Z,28.84
2022-09-06T09:43:45.091Z,29.14
2022-09-06T09:46:28.787Z,29.08
2022-09-06T09:49:08.201Z,29.55
2022-09-06T09:51:46.123Z,29.15
2022-09-06T09:54:14.675Z,29.58
2022-09-06T09:56:47.714Z,29.33
2022-09-06T09:59:22.303Z,29.26
2022-09-06T10:01:49.844Z,29.29
2022-09-06T10:07:13.392Z,29.66
2022-09-06T10:09:42.586Z,29.23
2022-09-06T10:12:16.082Z,29.37
2022-09-06T10:14:46.628Z,28.68
2022-09-06T10:17:33.068Z,28.57
2022-09-06T10:20:03.119Z,28.32
2022-09-06T10:22:35.544Z,28.92
2022-09-06T10:25:38.774Z,28.48
2022-09-06T10:28:29.598Z,28.96
2022-09-06T10:31:07.541Z,28.42
2022-09-06T10:33:48.794Z,28.53
2022-09-06T10:36:20.600Z,28.74
2022-09-06T10:38:54.070Z,29.00
2022-09-06T10:41:38.005Z,28.84
2022-09-06T10:44:16.680Z,28.88
2022-09-06T10:46:45.964Z,28.86
2022-09-06T10:49:18.671Z,29.01
2022-09-06T10:51:48.965Z,28.04
2022-09-06T10:54:21.851Z,28.72
2022-09-06T10:56:56.139Z,28.46
2022-09-06T10:59:36.279Z,28.97
2022-09-06T11:02:16.681Z,28.98
2022-09-06T11:07:40.473Z,28.11
2022-09-06T11:10:14.840Z,28.21
2022-09-06T11:12:49.013Z,27.92
2022-09-06T11:15:18.150Z,28.24
2022-09-06T11:17:52.781Z,28.51
2022-09-06T11:20:27.482Z,28.82
2022-09-06T11:23:23.614Z,28.64
2022-09-06T11:26:25.350Z,28.77
2022-09-06T11:28:55.172Z,28.96
2022-09-06T11:34:23.047Z,28.60
2022-09-06T11:36:52.220Z,28.94
2022-09-06T11:42:40.785Z,28.62
2022-09-06T11:45:17.099Z,28.28
2022-09-06T11:47:45.523Z,28.33
2022-09-06T11:50:23.336Z,28.26
2022-09-06T11:52:58.781Z,28.50
2022-09-06T11:55:34.099Z,28.76
2022-09-06T11:58:04.901Z,28.77
2022-09-06T12:00:33.006Z,28.53
2022-09-06T12:06:17.131Z,28.58
2022-09-06T12:08:44.492Z,28.65
2022-09-06T12:11:30.588Z,28.65
2022-09-06T12:14:03.674Z,29.12
2022-09-06T12:17:09.952Z,29.26
2022-09-06T12:19:44.674Z,28.97
2022-09-06T12:22:54.913Z,29.32
2022-09-06T12:25:52.741Z,29.39
2022-09-06T12:28:27.499Z,29.60
2022-09-06T12:30:54.415Z,29.44
2022-09-06T12:33:26.390Z,29.64
2022-09-06T12:35:56.572Z,29.76
2022-09-06T12:38:28.345Z,29.72
2022-09-06T12:40:55.405Z,29.66
2022-09-06T12:43:22.324Z,29.23
2022-09-06T12:45:51.807Z,29.13
2022-09-06T12:48:29.723Z,29.38
2022-09-06T12:51:08.760Z,29.20
2022-09-06T12:53:37.133Z,29.30
2022-09-06T12:56:06.865Z,29.00
2022-09-06T12:58:37.845Z,29.16
2022-09-06T13:01:11.086Z,29.36
2022-09-06T13:03:43.831Z,29.72
2022-09-06T13:06:16.943Z,29.45
2022-09-06T13:08:49.425Z,29.13
2022-09-06T13:11:23.579Z,29.36
2022-09-06T13:13:54.610Z,29.81
2022-09-06T13:16:23.525Z,29.23
2022-09-06T13:18:50.898Z,28.99
2022-09-06T13:21:26.354Z,28.63
2022-09-06T13:23:54.700Z,27.74
2022-09-06T13:26:35.973Z,28.19
2022-09-06T13:29:22.109Z,27.51
2022-09-06T13:31:51.517Z,27.96
2022-09-06T13:34:26.257Z,27.31
2022-09-06T13:36:56.060Z,27.54
2022-09-06T13:39:39.663Z,27.57
2022-09-06T13:42:08.096Z,27.31
2022-09-06T13:44:36.624Z,27.18
2022-09-06T13:47:03.726Z,26.71
2022-09-06T13:49:32.112Z,27.00
2022-09-06T13:52:00.467Z,26.93
2022-09-06T13:54:27.543Z,27.31
2022-09-06T13:56:56.091Z,26.93
2022-09-06T13:59:23.452Z,26.80
2022-09-06T14:01:56.878Z,26.90
2022-09-06T14:04:24.544Z,26.18
2022-09-06T14:06:54.765Z,26.78
2022-09-06T14:09:21.501Z,26.39
2022-09-06T14:11:48.571Z,25.98
2022-09-06T14:14:17.465Z,25.68
2022-09-06T14:16:46.430Z,26.12
2022-09-06T14:19:14.749Z,25.63
2022-09-06T14:21:41.662Z,26.08
2022-09-06T14:24:08.501Z,25.90
2022-09-06T14:26:36.555Z,26.50
2022-09-06T14:29:04.029Z,26.38
2022-09-06T14:31:32.544Z,26.34
2022-09-06T14:33:59.576Z,26.29
2022-09-06T14:36:28.500Z,26.31
2022-09-06T14:38:57.622Z,26.25
2022-09-06T14:41:27.243Z,25.54
2022-09-06T14:43:57.620Z,25.80
2022-09-06T14:46:25.930Z,25.56
2022-09-06T14:49:01.869Z,25.41
2022-09-06T14:51:30.016Z,25.85
2022-09-06T14:53:59.832Z,25.94
2022-09-06T14:56:33.188Z,25.85
2022-09-06T14:59:01.867Z,24.66
2022-09-06T15:01:34.373Z,23.75
2022-09-06T15:04:07.740Z,23.43
2022-09-06T15:06:35.494Z,23.18
2022-09-06T15:09:02.739Z,22.66
2022-09-06T15:11:32.929Z,22.60
2022-09-06T15:14:04.689Z,23.55
2022-09-06T15:16:32.860Z,22.03
2022-09-06T15:18:59.587Z,21.75
2022-09-06T15:21:28.528Z,21.82
2022-09-06T15:23:55.576Z,22.41
2022-09-06T15:26:22.289Z,22.67
2022-09-06T15:28:49.756Z,22.51
2022-09-06T15:31:16.971Z,22.01
2022-09-06T15:33:44.042Z,22.04
2022-09-06T15:36:12.641Z,21.89
2022-09-06T15:38:44.130Z,22.27
2022-09-06T15:41:12.520Z,22.25
2022-09-06T15:43:42.026Z,21.83
2022-09-06T15:46:10.891Z,22.49
2022-09-06T15:48:41.601Z,22.60
2022-09-06T15:51:09.034Z,22.77
2022-09-06T15:53:36.850Z,22.35
2022-09-06T15:56:06.773Z,22.46
2022-09-06T15:58:33.720Z,22.46
2022-09-06T16:01:06.942Z,22.57
2022-09-06T16:03:37.118Z,22.64
2022-09-06T16:08:57.121Z,23.27
2022-09-06T16:11:26.930Z,22.94
2022-09-06T16:13:54.237Z,22.98
2022-09-06T16:16:22.013Z,23.34
2022-09-06T16:18:48.732Z,23.15
2022-09-06T16:21:18.309Z,23.18
2022-09-06T16:23:49.451Z,23.23
2022-09-06T16:26:21.151Z,23.06
2022-09-06T16:28:54.258Z,22.99
2022-09-06T16:31:22.389Z,23.50
2022-09-06T16:33:50.471Z,23.72
2022-09-06T16:36:18.445Z,23.02
2022-09-06T16:38:46.334Z,23.87
2022-09-06T16:41:20.249Z,23.69
2022-09-06T16:43:50.694Z,23.68
2022-09-06T16:46:17.442Z,22.60
2022-09-06T16:48:44.611Z,22.50
2022-09-06T16:51:14.873Z,22.72
2022-09-06T16:53:43.485Z,23.03
2022-09-06T16:56:10.842Z,23.57
2022-09-06T16:58:37.865Z,23.12
2022-09-06T17:01:17.555Z,23.56
2022-09-06T17:03:44.812Z,24.05
2022-09-06T17:06:13.883Z,24.27
2022-09-06T17:08:44.974Z,23.91
2022-09-06T17:11:17.992Z,24.24
2022-09-06T17:13:48.758Z,24.00
2022-09-06T17:16:21.943Z,24.56
2022-09-06T17:18:50.396Z,25.27
2022-09-06T17:21:17.149Z,25.35
2022-09-06T17:23:43.819Z,25.16
2022-09-06T17:26:12.429Z,25.20
2022-09-06T17:28:44.173Z,25.21
2022-09-06T17:31:16.797Z,25.31
2022-09-06T17:33:48.472Z,25.15
2022-09-06T17:36:17.921Z,25.58
2022-09-06T17:38:52.989Z,25.79
2022-09-06T17:41:37.814Z,25.59
2022-09-06T17:44:06.161Z,25.81
2022-09-06T17:46:33.238Z,25.71
2022-09-06T17:49:01.589Z,26.76
2022-09-06T17:51:28.707Z,27.05
2022-09-06T17:53:55.398Z,26.83
2022-09-06T17:56:22.319Z,26.81
2022-09-06T17:58:56.056Z,27.21
2022-09-06T18:01:27.974Z,26.85
2022-09-06T18:03:55.316Z,26.47
2022-09-06T18:06:28.764Z,26.78
2022-09-06T18:09:08.353Z,27.00
2022-09-06T18:11:48.023Z,26.89
2022-09-06T18:14:19.966Z,26.95
2022-09-06T18:16:47.484Z,27.05
2022-09-06T18:19:15.604Z,26.96
2022-09-06T18:21:43.956Z,26.97
2022-09-06T18:24:11.076Z,27.23
2022-09-06T18:26:37.894Z,27.48
2022-09-06T18:29:05.436Z,27.71
2022-09-06T18:31:33.622Z,27.33
2022-09-06T18:34:00.782Z,27.83
2022-09-06T18:36:32.352Z,27.68
2022-09-06T18:39:05.952Z,28.26
2022-09-06T18:41:33.435Z,28.46
2022-09-06T18:44:01.283Z,28.59
2022-09-06T18:46:29.680Z,28.56
2022-09-06T18:48:59.401Z,28.43
2022-09-06T18:51:27.026Z,28.78
2022-09-06T18:53:56.058Z,28.46
2022-09-06T18:56:25.476Z,29.15
2022-09-06T18:58:54.644Z,29.32
2022-09-06T19:01:21.987Z,29.78
2022-09-06T19:03:48.872Z,30.39
2022-09-06T19:06:17.630Z,30.61
2022-09-06T19:08:51.241Z,31.06
2022-09-06T19:11:21.933Z,31.11
2022-09-06T19:13:53.022Z,31.18
2022-09-06T19:16:20.762Z,31.36
2022-09-06T19:18:47.720Z,31.62
2022-09-06T19:21:16.626Z,31.75
2022-09-06T19:23:45.175Z,32.05
2022-09-06T19:26:14.479Z,32.22
2022-09-06T19:28:42.437Z,31.97
2022-09-06T19:31:12.525Z,32.47
2022-09-06T19:33:39.657Z,32.68
2022-09-06T19:36:11.939Z,32.82
2022-09-06T19:39:10.308Z,32.98
2022-09-06T19:41:28.512Z,32.62
2022-09-06T19:44:04.666Z,32.85
2022-09-06T19:46:46.183Z,32.91
2022-09-06T19:49:21.187Z,33.33
2022-09-06T19:52:16.347Z,33.29
2022-09-06T19:54:43.322Z,33.79
2022-09-06T19:57:09.937Z,33.83
2022-09-06T19:59:36.602Z,34.04
2022-09-06T20:02:05.146Z,34.23
2022-09-06T20:04:32.158Z,33.93
2022-09-06T20:06:58.880Z,33.82
2022-09-06T20:09:25.794Z,34.07
2022-09-06T20:11:52.720Z,33.82
2022-09-06T20:14:19.336Z,34.20
2022-09-06T20:16:46.162Z,34.24
2022-09-06T20:19:14.320Z,33.95
2022-09-06T20:21:41.374Z,34.03
2022-09-06T20:24:08.173Z,34.24
2022-09-06T20:26:37.221Z,34.82
2022-09-06T20:29:06.098Z,34.73
2022-09-06T20:31:34.185Z,34.81
2022-09-06T20:34:02.423Z,34.80
2022-09-06T20:36:31.130Z,34.99
2022-09-06T20:39:00.896Z,34.98
2022-09-06T20:41:27.971Z,35.39
2022-09-06T20:43:56.096Z,35.48
2022-09-06T20:46:25.022Z,35.81
2022-09-06T20:48:52.856Z,36.26
2022-09-06T20:51:23.076Z,36.50
2022-09-06T20:53:55.460Z,36.42
2022-09-06T20:56:28.955Z,36.54
2022-09-06T20:59:01.160Z,37.02
2022-09-06T21:01:29.564Z,36.88
2022-09-06T21:03:58.098Z,37.34
2022-09-06T21:06:27.048Z,36.89
2022-09-06T21:08:57.087Z,37.95
2022-09-06T21:11:27.749Z,37.55
2022-09-06T21:13:56.492Z,37.96
2022-09-06T21:16:28.384Z,37.98
2022-09-06T21:18:58.089Z,38.19
2022-09-06T21:21:31.686Z,38.63
2022-09-06T21:24:01.657Z,38.45
2022-09-06T21:26:29.071Z,38.03
2022-09-06T21:28:56.802Z,38.39
2022-09-06T21:31:25.169Z,38.79
2022-09-06T21:33:53.465Z,39.37
2022-09-06T21:36:21.880Z,39.32
2022-09-06T21:38:51.706Z,39.45
2022-09-06T21:41:20.312Z,39.37
2022-09-06T21:43:47.279Z,38.99
2022-09-06T21:46:16.159Z,39.50
2022-09-06T21:48:44.573Z,39.42
2022-09-06T21:51:13.024Z,39.47
2022-09-06T21:53:40.557Z,39.62
2022-09-06T21:56:07.663Z,40.07
2022-09-06T21:58:36.442Z,40.13
2022-09-06T22:01:04.345Z,40.08
2022-09-06T22:03:34.710Z,40.02
2022-09-06T22:06:08.514Z,40.73
2022-09-06T22:08:35.341Z,40.78
2022-09-06T22:11:08.753Z,40.85
2022-09-06T22:13:36.907Z,41.23
2022-09-06T22:16:07.871Z,41.01
2022-09-06T22:18:35.645Z,41.69
2022-09-06T22:21:03.972Z,41.56
2022-09-06T22:23:31.789Z,41.30
2022-09-06T22:26:03.185Z,41.65
2022-09-06T22:28:30.986Z,41.34
2022-09-06T22:30:59.520Z,41.12
2022-09-06T22:33:26.390Z,40.77
2022-09-06T22:35:54.053Z,40.06
2022-09-06T22:38:21.081Z,39.96
2022-09-06T22:40:47.819Z,39.68
2022-09-06T22:43:15.388Z,39.30
2022-09-06T22:45:42.103Z,39.51
2022-09-06T22:48:10.277Z,39.40
2022-09-06T22:50:36.944Z,39.17
2022-09-06T22:53:06.841Z,39.17
2022-09-06T22:55:33.780Z,39.22
2022-09-06T22:58:01.016Z,39.09
2022-09-06T23:00:28.618Z,38.79
2022-09-06T23:02:55.499Z,39.12
2022-09-06T23:05:23.583Z,39.06
2022-09-06T23:07:52.749Z,39.67
2022-09-06T23:10:19.921Z,39.88
2022-09-06T23:12:47.073Z,40.12
2022-09-06T23:15:14.212Z,39.86
2022-09-06T23:17:40.872Z,39.33
2022-09-06T23:20:08.470Z,39.64
2022-09-06T23:22:36.544Z,39.47
2022-09-06T23:25:03.991Z,39.19
2022-09-06T23:27:30.974Z,42.92
2022-09-06T23:29:57.645Z,45.95
2022-09-06T23:32:24.345Z,48.32
2022-09-06T23:34:51.069Z,51.23
2022-09-06T23:37:17.712Z,52.88
2022-09-06T23:39:45.989Z,55.09
2022-09-06T23:42:12.671Z,55.87
2022-09-06T23:44:41.054Z,56.63
2022-09-06T23:47:07.772Z,58.86
2022-09-06T23:49:34.501Z,59.60
2022-09-06T23:52:01.711Z,60.36
2022-09-06T23:54:28.350Z,61.54
2022-09-06T23:56:56.364Z,61.30
2022-09-06T23:59:23.063Z,61.93
